sensor_id;sensor_type;location;lat;lon;timestamp;temperature;humidity
16523;DHT22;19889;52.546;13.348;2023-04-24T00:00:15;16.00;99.90
16523;DHT22;19889;52.546;13.348;2023-04-24T00:02:44;16.00;99.90
16523;DHT22;19889;52.546;13.348;2023-04-24T00:05:14;16.00;99.90
16523;DHT22;19889;52.546;13.348;2023-04-24T00:07:43;15.90;99.90
16523;DHT22;19889;52.546;13.348;2023-04-24T00:10:11;15.90;99.90
16523;DHT22;19889;52.546;13.348;2023-04-24T00:12:38;15.90;99.90
16523;DHT22;19889;52.546;13.348;2023-04-24T00:15:06;15.80;99.90
16523;DHT22;19889;52.546;13.348;2023-04-24T00:17:33;15.90;99.90
16523;DHT22;19889;52.546;13.348;2023-04-24T00:20:00;15.90;99.90
16523;DHT22;19889;52.546;13.348;2023-04-24T00:22:31;15.90;99.90
16523;DHT22;19889;52.546;13.348;2023-04-24T00:24:58;15.90;99.90
16523;DHT22;19889;52.546;13.348;2023-04-24T00:27:25;15.90;99.90
16523;DHT22;19889;52.546;13.348;2023-04-24T00:29:53;15.80;99.90
16523;DHT22;19889;52.546;13.348;2023-04-24T00:32:19;15.90;99.90
16523;DHT22;19889;52.546;13.348;2023-04-24T00:34:48;15.80;99.90
16523;DHT22;19889;52.546;13.348;2023-04-24T00:37:14;15.80;99.90
16523;DHT22;19889;52.546;13.348;2023-04-24T00:39:45;15.90;99.90
16523;DHT22;19889;52.546;13.348;2023-04-24T00:42:12;15.90;99.90
16523;DHT22;19889;52.546;13.348;2023-04-24T00:44:40;15.80;99.90
16523;DHT22;19889;52.546;13.348;2023-04-24T00:47:07;15.80;99.90
16523;DHT22;19889;52.546;13.348;2023-04-24T00:49:35;15.90;99.90
16523;DHT22;19889;52.546;13.348;2023-04-24T00:52:02;15.80;99.90
16523;DHT22;19889;52.546;13.348;2023-04-24T00:54:33;15.80;99.90
16523;DHT22;19889;52.546;13.348;2023-04-24T00:57:02;15.80;99.90
16523;DHT22;19889;52.546;13.348;2023-04-24T00:59:29;15.80;99.90
16523;DHT22;19889;52.546;13.348;2023-04-24T01:01:57;15.80;99.90
16523;DHT22;19889;52.546;13.348;2023-04-24T01:04:24;15.80;99.90
16523;DHT22;19889;52.546;13.348;2023-04-24T01:06:52;15.80;99.90
16523;DHT22;19889;52.546;13.348;2023-04-24T01:09:20;15.80;99.90
16523;DHT22;19889;52.546;13.348;2023-04-24T01:11:48;15.80;99.90
16523;DHT22;19889;52.546;13.348;2023-04-24T01:14:17;15.80;99.90
16523;DHT22;19889;52.546;13.348;2023-04-24T01:16:44;15.80;99.90
16523;DHT22;19889;52.546;13.348;2023-04-24T01:19:11;15.80;99.90
16523;DHT22;19889;52.546;13.348;2023-04-24T01:21:40;15.70;99.90
16523;DHT22;19889;52.546;13.348;2023-04-24T01:24:10;15.70;99.90
16523;DHT22;19889;52.546;13.348;2023-04-24T01:26:37;15.70;99.90
16523;DHT22;19889;52.546;13.348;2023-04-24T01:29:04;15.60;99.90
16523;DHT22;19889;52.546;13.348;2023-04-24T01:31:32;15.60;99.90
16523;DHT22;19889;52.546;13.348;2023-04-24T01:33:59;15.60;99.90
16523;DHT22;19889;52.546;13.348;2023-04-24T01:36:27;15.50;99.90
16523;DHT22;19889;52.546;13.348;2023-04-24T01:38:55;15.60;99.90
16523;DHT22;19889;52.546;13.348;2023-04-24T01:41:26;15.60;99.90
16523;DHT22;19889;52.546;13.348;2023-04-24T01:43:54;15.60;99.90
16523;DHT22;19889;52.546;13.348;2023-04-24T01:46:21;15.60;99.90
16523;DHT22;19889;52.546;13.348;2023-04-24T01:48:48;15.60;99.90
16523;DHT22;19889;52.546;13.348;2023-04-24T01:51:15;15.60;99.90
16523;DHT22;19889;52.546;13.348;2023-04-24T01:53:43;15.60;99.90
16523;DHT22;19889;52.546;13.348;2023-04-24T01:56:10;15.60;99.90
16523;DHT22;19889;52.546;13.348;2023-04-24T01:58:38;15.60;99.90
16523;DHT22;19889;52.546;13.348;2023-04-24T02:01:06;15.50;99.90
16523;DHT22;19889;52.546;13.348;2023-04-24T02:03:33;15.60;99.90
16523;DHT22;19889;52.546;13.348;2023-04-24T02:06:00;15.60;99.90
16523;DHT22;19889;52.546;13.348;2023-04-24T02:08:27;15.50;99.90
16523;DHT22;19889;52.546;13.348;2023-04-24T02:10:54;15.60;99.90
16523;DHT22;19889;52.546;13.348;2023-04-24T02:13:21;15.50;99.90
16523;DHT22;19889;52.546;13.348;2023-04-24T02:15:50;15.60;99.90
16523;DHT22;19889;52.546;13.348;2023-04-24T02:18:17;15.50;99.90
16523;DHT22;19889;52.546;13.348;2023-04-24T02:20:44;15.50;99.90
16523;DHT22;19889;52.546;13.348;2023-04-24T02:23:11;15.50;99.90
16523;DHT22;19889;52.546;13.348;2023-04-24T02:25:38;15.50;99.90
16523;DHT22;19889;52.546;13.348;2023-04-24T02:28:05;15.40;99.90
16523;DHT22;19889;52.546;13.348;2023-04-24T02:30:33;15.50;99.90
16523;DHT22;19889;52.546;13.348;2023-04-24T02:33:02;15.50;99.90
16523;DHT22;19889;52.546;13.348;2023-04-24T02:35:29;15.50;99.90
16523;DHT22;19889;52.546;13.348;2023-04-24T02:37:56;15.50;99.90
16523;DHT22;19889;52.546;13.348;2023-04-24T02:40:23;15.50;99.90
16523;DHT22;19889;52.546;13.348;2023-04-24T02:42:50;15.50;99.90
16523;DHT22;19889;52.546;13.348;2023-04-24T02:45:17;15.10;99.90
16523;DHT22;19889;52.546;13.348;2023-04-24T02:47:44;15.50;99.90
16523;DHT22;19889;52.546;13.348;2023-04-24T02:50:12;15.50;99.90
16523;DHT22;19889;52.546;13.348;2023-04-24T02:52:39;15.50;99.90
16523;DHT22;19889;52.546;13.348;2023-04-24T02:55:07;15.50;99.90
16523;DHT22;19889;52.546;13.348;2023-04-24T02:57:34;15.50;99.90
16523;DHT22;19889;52.546;13.348;2023-04-24T03:00:01;15.50;99.90
16523;DHT22;19889;52.546;13.348;2023-04-24T03:02:32;15.40;99.90
16523;DHT22;19889;52.546;13.348;2023-04-24T03:04:59;15.40;99.90
16523;DHT22;19889;52.546;13.348;2023-04-24T03:07:27;15.40;99.90
16523;DHT22;19889;52.546;13.348;2023-04-24T03:09:54;15.40;99.90
16523;DHT22;19889;52.546;13.348;2023-04-24T03:12:23;15.40;99.90
16523;DHT22;19889;52.546;13.348;2023-04-24T03:14:50;15.40;99.90
16523;DHT22;19889;52.546;13.348;2023-04-24T03:17:18;15.40;99.90
16523;DHT22;19889;52.546;13.348;2023-04-24T03:19:45;15.40;99.90
16523;DHT22;19889;52.546;13.348;2023-04-24T03:22:12;15.30;99.90
16523;DHT22;19889;52.546;13.348;2023-04-24T03:24:42;15.40;99.90
16523;DHT22;19889;52.546;13.348;2023-04-24T03:27:09;15.30;99.90
16523;DHT22;19889;52.546;13.348;2023-04-24T03:30:02;15.40;99.90
16523;DHT22;19889;52.546;13.348;2023-04-24T03:32:52;15.30;99.90
16523;DHT22;19889;52.546;13.348;2023-04-24T03:35:23;15.30;99.90
16523;DHT22;19889;52.546;13.348;2023-04-24T03:37:51;15.40;99.90
16523;DHT22;19889;52.546;13.348;2023-04-24T03:40:55;15.40;99.90
16523;DHT22;19889;52.546;13.348;2023-04-24T03:43:46;15.40;99.90
16523;DHT22;19889;52.546;13.348;2023-04-24T03:46:13;15.30;99.90
16523;DHT22;19889;52.546;13.348;2023-04-24T03:48:45;15.40;99.90
16523;DHT22;19889;52.546;13.348;2023-04-24T03:51:13;15.30;99.90
16523;DHT22;19889;52.546;13.348;2023-04-24T03:53:44;15.30;99.90
16523;DHT22;19889;52.546;13.348;2023-04-24T03:56:15;15.30;99.90
16523;DHT22;19889;52.546;13.348;2023-04-24T03:58:42;15.40;99.90
16523;DHT22;19889;52.546;13.348;2023-04-24T04:01:10;15.40;99.90
16523;DHT22;19889;52.546;13.348;2023-04-24T04:03:40;15.40;99.90
16523;DHT22;19889;52.546;13.348;2023-04-24T04:06:07;15.40;99.90
16523;DHT22;19889;52.546;13.348;2023-04-24T04:08:36;15.40;99.90
16523;DHT22;19889;52.546;13.348;2023-04-24T04:11:03;15.40;99.90
16523;DHT22;19889;52.546;13.348;2023-04-24T04:13:32;15.40;99.90
16523;DHT22;19889;52.546;13.348;2023-04-24T04:15:59;15.40;99.90
16523;DHT22;19889;52.546;13.348;2023-04-24T04:18:26;15.40;99.90
16523;DHT22;19889;52.546;13.348;2023-04-24T04:20:53;15.40;99.90
16523;DHT22;19889;52.546;13.348;2023-04-24T04:23:20;15.40;99.90
16523;DHT22;19889;52.546;13.348;2023-04-24T04:26:03;15.40;99.90
16523;DHT22;19889;52.546;13.348;2023-04-24T04:28:45;15.40;99.90
16523;DHT22;19889;52.546;13.348;2023-04-24T04:31:13;15.40;99.90
16523;DHT22;19889;52.546;13.348;2023-04-24T04:33:40;16.00;99.90
16523;DHT22;19889;52.546;13.348;2023-04-24T04:36:08;15.40;99.90
16523;DHT22;19889;52.546;13.348;2023-04-24T04:38:39;15.40;99.90
16523;DHT22;19889;52.546;13.348;2023-04-24T04:41:25;15.40;99.90
16523;DHT22;19889;52.546;13.348;2023-04-24T04:43:53;15.40;99.90
16523;DHT22;19889;52.546;13.348;2023-04-24T04:46:20;15.40;99.90
16523;DHT22;19889;52.546;13.348;2023-04-24T04:49:10;15.40;99.90
16523;DHT22;19889;52.546;13.348;2023-04-24T04:51:37;15.40;99.90
16523;DHT22;19889;52.546;13.348;2023-04-24T04:54:04;15.40;99.90
16523;DHT22;19889;52.546;13.348;2023-04-24T04:56:31;15.40;99.90
16523;DHT22;19889;52.546;13.348;2023-04-24T04:59:01;15.40;99.90
16523;DHT22;19889;52.546;13.348;2023-04-24T05:01:28;15.40;99.90
16523;DHT22;19889;52.546;13.348;2023-04-24T05:03:56;15.40;99.90
16523;DHT22;19889;52.546;13.348;2023-04-24T05:06:23;15.40;99.90
16523;DHT22;19889;52.546;13.348;2023-04-24T05:08:50;15.40;99.90
16523;DHT22;19889;52.546;13.348;2023-04-24T05:11:34;15.40;99.90
16523;DHT22;19889;52.546;13.348;2023-04-24T05:14:03;15.50;99.90
16523;DHT22;19889;52.546;13.348;2023-04-24T05:16:38;15.40;99.90
16523;DHT22;19889;52.546;13.348;2023-04-24T05:19:06;15.40;99.90
16523;DHT22;19889;52.546;13.348;2023-04-24T05:21:37;15.50;99.90
16523;DHT22;19889;52.546;13.348;2023-04-24T05:24:06;15.50;99.90
16523;DHT22;19889;52.546;13.348;2023-04-24T05:26:59;15.50;99.90
16523;DHT22;19889;52.546;13.348;2023-04-24T05:29:35;15.50;99.90
16523;DHT22;19889;52.546;13.348;2023-04-24T05:32:04;15.50;99.90
16523;DHT22;19889;52.546;13.348;2023-04-24T05:34:31;15.50;99.90
16523;DHT22;19889;52.546;13.348;2023-04-24T05:36:58;15.50;99.90
16523;DHT22;19889;52.546;13.348;2023-04-24T05:41:53;15.50;99.90
16523;DHT22;19889;52.546;13.348;2023-04-24T05:44:20;15.50;99.90
16523;DHT22;19889;52.546;13.348;2023-04-24T05:46:49;15.50;99.90
16523;DHT22;19889;52.546;13.348;2023-04-24T05:49:16;15.50;99.90
16523;DHT22;19889;52.546;13.348;2023-04-24T05:51:44;15.50;99.90
16523;DHT22;19889;52.546;13.348;2023-04-24T05:54:12;15.50;99.90
16523;DHT22;19889;52.546;13.348;2023-04-24T05:56:40;15.50;99.90
16523;DHT22;19889;52.546;13.348;2023-04-24T05:59:08;15.50;99.90
16523;DHT22;19889;52.546;13.348;2023-04-24T06:01:36;15.50;99.90
16523;DHT22;19889;52.546;13.348;2023-04-24T06:04:14;15.50;99.90
16523;DHT22;19889;52.546;13.348;2023-04-24T06:06:41;15.50;99.90
16523;DHT22;19889;52.546;13.348;2023-04-24T06:09:08;15.50;99.90
16523;DHT22;19889;52.546;13.348;2023-04-24T06:11:35;15.50;99.90
16523;DHT22;19889;52.546;13.348;2023-04-24T06:14:03;15.50;99.90
16523;DHT22;19889;52.546;13.348;2023-04-24T06:16:50;15.60;99.90
16523;DHT22;19889;52.546;13.348;2023-04-24T06:19:30;15.60;99.90
16523;DHT22;19889;52.546;13.348;2023-04-24T06:21:57;15.60;99.90
16523;DHT22;19889;52.546;13.348;2023-04-24T06:24:27;15.60;99.90
16523;DHT22;19889;52.546;13.348;2023-04-24T06:26:54;15.60;99.90
16523;DHT22;19889;52.546;13.348;2023-04-24T06:29:22;15.70;99.90
16523;DHT22;19889;52.546;13.348;2023-04-24T06:31:50;15.70;99.90
16523;DHT22;19889;52.546;13.348;2023-04-24T06:34:17;15.70;99.90
16523;DHT22;19889;52.546;13.348;2023-04-24T06:36:46;15.70;99.90
16523;DHT22;19889;52.546;13.348;2023-04-24T06:39:13;15.70;99.90
16523;DHT22;19889;52.546;13.348;2023-04-24T06:41:40;15.80;99.90
16523;DHT22;19889;52.546;13.348;2023-04-24T06:44:14;15.90;99.90
16523;DHT22;19889;52.546;13.348;2023-04-24T06:46:42;16.10;99.90
16523;DHT22;19889;52.546;13.348;2023-04-24T06:49:09;16.20;99.90
16523;DHT22;19889;52.546;13.348;2023-04-24T06:51:36;16.40;99.90
16523;DHT22;19889;52.546;13.348;2023-04-24T06:54:04;16.60;99.90
16523;DHT22;19889;52.546;13.348;2023-04-24T06:56:31;16.70;99.90
16523;DHT22;19889;52.546;13.348;2023-04-24T06:58:59;16.80;99.90
16523;DHT22;19889;52.546;13.348;2023-04-24T07:01:26;16.80;99.90
16523;DHT22;19889;52.546;13.348;2023-04-24T07:03:53;16.80;99.90
16523;DHT22;19889;52.546;13.348;2023-04-24T07:06:20;16.80;99.90
16523;DHT22;19889;52.546;13.348;2023-04-24T07:08:49;16.80;99.90
16523;DHT22;19889;52.546;13.348;2023-04-24T07:11:17;16.80;99.90
16523;DHT22;19889;52.546;13.348;2023-04-24T07:13:44;16.90;99.90
16523;DHT22;19889;52.546;13.348;2023-04-24T07:16:11;16.90;99.90
16523;DHT22;19889;52.546;13.348;2023-04-24T07:18:38;16.90;99.90
16523;DHT22;19889;52.546;13.348;2023-04-24T07:21:05;17.00;99.90
16523;DHT22;19889;52.546;13.348;2023-04-24T07:23:32;17.10;99.90
16523;DHT22;19889;52.546;13.348;2023-04-24T07:25:59;17.20;99.90
16523;DHT22;19889;52.546;13.348;2023-04-24T07:28:28;17.30;99.90
16523;DHT22;19889;52.546;13.348;2023-04-24T07:30:56;17.30;99.90
16523;DHT22;19889;52.546;13.348;2023-04-24T07:33:24;17.40;99.90
16523;DHT22;19889;52.546;13.348;2023-04-24T07:35:51;17.60;99.90
16523;DHT22;19889;52.546;13.348;2023-04-24T07:38:18;17.70;99.90
16523;DHT22;19889;52.546;13.348;2023-04-24T07:40:47;17.90;99.90
16523;DHT22;19889;52.546;13.348;2023-04-24T07:43:14;18.00;99.90
16523;DHT22;19889;52.546;13.348;2023-04-24T07:45:43;18.10;99.90
16523;DHT22;19889;52.546;13.348;2023-04-24T07:48:10;18.10;99.90
16523;DHT22;19889;52.546;13.348;2023-04-24T07:50:37;18.10;99.90
16523;DHT22;19889;52.546;13.348;2023-04-24T07:53:03;18.10;99.90
16523;DHT22;19889;52.546;13.348;2023-04-24T07:55:31;18.30;99.90
16523;DHT22;19889;52.546;13.348;2023-04-24T07:57:58;18.40;99.90
16523;DHT22;19889;52.546;13.348;2023-04-24T08:00:25;18.40;99.90
16523;DHT22;19889;52.546;13.348;2023-04-24T08:02:53;18.50;99.90
16523;DHT22;19889;52.546;13.348;2023-04-24T08:05:20;18.50;99.90
16523;DHT22;19889;52.546;13.348;2023-04-24T08:07:47;18.60;99.90
16523;DHT22;19889;52.546;13.348;2023-04-24T08:10:15;18.60;99.90
16523;DHT22;19889;52.546;13.348;2023-04-24T08:12:42;18.70;99.90
16523;DHT22;19889;52.546;13.348;2023-04-24T08:15:10;18.70;99.90
16523;DHT22;19889;52.546;13.348;2023-04-24T08:17:37;18.70;99.90
16523;DHT22;19889;52.546;13.348;2023-04-24T08:20:08;18.70;99.90
16523;DHT22;19889;52.546;13.348;2023-04-24T08:22:39;18.70;99.90
16523;DHT22;19889;52.546;13.348;2023-04-24T08:25:06;18.60;99.90
16523;DHT22;19889;52.546;13.348;2023-04-24T08:27:34;18.60;99.90
16523;DHT22;19889;52.546;13.348;2023-04-24T08:30:02;18.70;99.90
16523;DHT22;19889;52.546;13.348;2023-04-24T08:32:29;18.70;99.90
16523;DHT22;19889;52.546;13.348;2023-04-24T08:34:56;18.60;99.90
16523;DHT22;19889;52.546;13.348;2023-04-24T08:37:26;18.60;99.90
16523;DHT22;19889;52.546;13.348;2023-04-24T08:39:54;18.60;99.90
16523;DHT22;19889;52.546;13.348;2023-04-24T08:42:21;18.70;99.90
16523;DHT22;19889;52.546;13.348;2023-04-24T08:44:49;18.70;99.90
16523;DHT22;19889;52.546;13.348;2023-04-24T08:47:16;18.60;99.90
16523;DHT22;19889;52.546;13.348;2023-04-24T08:49:44;18.50;99.90
16523;DHT22;19889;52.546;13.348;2023-04-24T08:52:12;18.50;99.90
16523;DHT22;19889;52.546;13.348;2023-04-24T08:54:42;18.40;99.90
16523;DHT22;19889;52.546;13.348;2023-04-24T08:57:11;18.60;99.90
16523;DHT22;19889;52.546;13.348;2023-04-24T08:59:40;18.80;99.90
16523;DHT22;19889;52.546;13.348;2023-04-24T09:02:10;18.90;99.90
16523;DHT22;19889;52.546;13.348;2023-04-24T09:04:38;18.90;99.90
16523;DHT22;19889;52.546;13.348;2023-04-24T09:07:06;19.00;99.90
16523;DHT22;19889;52.546;13.348;2023-04-24T09:09:34;19.00;99.90
16523;DHT22;19889;52.546;13.348;2023-04-24T09:12:03;18.90;99.90
16523;DHT22;19889;52.546;13.348;2023-04-24T09:14:31;18.90;99.90
16523;DHT22;19889;52.546;13.348;2023-04-24T09:16:58;18.80;99.90
16523;DHT22;19889;52.546;13.348;2023-04-24T09:19:25;18.70;99.90
16523;DHT22;19889;52.546;13.348;2023-04-24T09:21:53;18.70;99.90
16523;DHT22;19889;52.546;13.348;2023-04-24T09:24:21;18.60;99.90
16523;DHT22;19889;52.546;13.348;2023-04-24T09:26:55;18.60;99.90
16523;DHT22;19889;52.546;13.348;2023-04-24T09:29:24;18.50;99.90
16523;DHT22;19889;52.546;13.348;2023-04-24T09:31:51;18.50;99.90
16523;DHT22;19889;52.546;13.348;2023-04-24T09:34:22;18.50;99.90
16523;DHT22;19889;52.546;13.348;2023-04-24T09:36:50;18.40;99.90
16523;DHT22;19889;52.546;13.348;2023-04-24T09:39:18;18.40;99.90
16523;DHT22;19889;52.546;13.348;2023-04-24T09:41:48;18.40;99.90
16523;DHT22;19889;52.546;13.348;2023-04-24T09:44:16;18.30;99.90
16523;DHT22;19889;52.546;13.348;2023-04-24T09:46:49;18.20;99.90
16523;DHT22;19889;52.546;13.348;2023-04-24T09:49:22;18.20;99.90
16523;DHT22;19889;52.546;13.348;2023-04-24T09:51:50;18.20;99.90
16523;DHT22;19889;52.546;13.348;2023-04-24T09:54:18;18.10;99.90
16523;DHT22;19889;52.546;13.348;2023-04-24T09:56:47;18.20;99.90
16523;DHT22;19889;52.546;13.348;2023-04-24T09:59:16;18.20;99.90
16523;DHT22;19889;52.546;13.348;2023-04-24T10:01:45;18.10;99.90
16523;DHT22;19889;52.546;13.348;2023-04-24T10:04:16;18.10;99.90
16523;DHT22;19889;52.546;13.348;2023-04-24T10:06:44;18.10;99.90
16523;DHT22;19889;52.546;13.348;2023-04-24T10:09:12;18.10;99.90
16523;DHT22;19889;52.546;13.348;2023-04-24T10:11:42;18.10;99.90
16523;DHT22;19889;52.546;13.348;2023-04-24T10:14:12;17.50;99.90
16523;DHT22;19889;52.546;13.348;2023-04-24T10:16:40;18.10;99.90
16523;DHT22;19889;52.546;13.348;2023-04-24T10:19:09;18.10;99.90
16523;DHT22;19889;52.546;13.348;2023-04-24T10:21:40;18.20;99.90
16523;DHT22;19889;52.546;13.348;2023-04-24T10:24:08;18.20;99.90
16523;DHT22;19889;52.546;13.348;2023-04-24T10:26:35;18.30;99.90
16523;DHT22;19889;52.546;13.348;2023-04-24T10:29:05;18.70;99.90
16523;DHT22;19889;52.546;13.348;2023-04-24T10:31:36;18.30;99.90
16523;DHT22;19889;52.546;13.348;2023-04-24T10:34:04;18.40;99.90
16523;DHT22;19889;52.546;13.348;2023-04-24T10:36:33;18.30;99.90
16523;DHT22;19889;52.546;13.348;2023-04-24T10:39:02;18.30;99.90
16523;DHT22;19889;52.546;13.348;2023-04-24T10:41:30;18.30;99.90
16523;DHT22;19889;52.546;13.348;2023-04-24T10:44:07;18.20;99.90
16523;DHT22;19889;52.546;13.348;2023-04-24T10:46:34;18.20;99.90
16523;DHT22;19889;52.546;13.348;2023-04-24T10:49:04;18.20;99.90
16523;DHT22;19889;52.546;13.348;2023-04-24T10:51:47;18.20;99.90
16523;DHT22;19889;52.546;13.348;2023-04-24T10:54:28;18.10;99.90
16523;DHT22;19889;52.546;13.348;2023-04-24T10:57:26;18.10;99.90
16523;DHT22;19889;52.546;13.348;2023-04-24T11:00:13;18.20;99.90
16523;DHT22;19889;52.546;13.348;2023-04-24T11:02:40;18.10;99.90
16523;DHT22;19889;52.546;13.348;2023-04-24T11:05:14;18.10;99.90
16523;DHT22;19889;52.546;13.348;2023-04-24T11:08:14;18.20;99.90
16523;DHT22;19889;52.546;13.348;2023-04-24T11:10:44;18.20;99.90
16523;DHT22;19889;52.546;13.348;2023-04-24T11:13:15;18.20;99.90
16523;DHT22;19889;52.546;13.348;2023-04-24T11:15:42;18.30;99.90
16523;DHT22;19889;52.546;13.348;2023-04-24T11:18:13;18.30;99.90
16523;DHT22;19889;52.546;13.348;2023-04-24T11:20:42;18.30;99.90
16523;DHT22;19889;52.546;13.348;2023-04-24T11:23:13;18.40;99.90
16523;DHT22;19889;52.546;13.348;2023-04-24T11:25:41;18.40;99.90
16523;DHT22;19889;52.546;13.348;2023-04-24T11:28:14;18.40;99.90
16523;DHT22;19889;52.546;13.348;2023-04-24T11:30:42;18.40;99.90
16523;DHT22;19889;52.546;13.348;2023-04-24T11:33:09;18.40;99.90
16523;DHT22;19889;52.546;13.348;2023-04-24T11:35:39;18.40;99.90
16523;DHT22;19889;52.546;13.348;2023-04-24T11:38:07;18.30;99.90
16523;DHT22;19889;52.546;13.348;2023-04-24T11:40:37;18.30;99.90
16523;DHT22;19889;52.546;13.348;2023-04-24T11:43:04;18.20;99.90
16523;DHT22;19889;52.546;13.348;2023-04-24T11:45:31;18.10;99.90
16523;DHT22;19889;52.546;13.348;2023-04-24T11:47:58;18.10;99.90
16523;DHT22;19889;52.546;13.348;2023-04-24T11:50:26;18.00;99.90
16523;DHT22;19889;52.546;13.348;2023-04-24T11:52:55;17.90;99.90
16523;DHT22;19889;52.546;13.348;2023-04-24T11:55:27;17.80;99.90
16523;DHT22;19889;52.546;13.348;2023-04-24T11:57:57;17.80;99.90
16523;DHT22;19889;52.546;13.348;2023-04-24T12:00:26;17.80;99.90
16523;DHT22;19889;52.546;13.348;2023-04-24T12:03:04;17.70;99.90
16523;DHT22;19889;52.546;13.348;2023-04-24T12:05:32;17.70;99.90
16523;DHT22;19889;52.546;13.348;2023-04-24T12:08:00;17.70;99.90
16523;DHT22;19889;52.546;13.348;2023-04-24T12:10:29;17.70;99.90
16523;DHT22;19889;52.546;13.348;2023-04-24T12:12:59;17.80;99.90
16523;DHT22;19889;52.546;13.348;2023-04-24T12:15:26;17.70;99.90
16523;DHT22;19889;52.546;13.348;2023-04-24T12:17:54;17.80;99.90
16523;DHT22;19889;52.546;13.348;2023-04-24T12:20:26;17.80;99.90
16523;DHT22;19889;52.546;13.348;2023-04-24T12:22:55;17.70;99.90
16523;DHT22;19889;52.546;13.348;2023-04-24T12:25:24;17.80;99.90
16523;DHT22;19889;52.546;13.348;2023-04-24T12:28:09;17.80;99.90
16523;DHT22;19889;52.546;13.348;2023-04-24T12:30:40;17.80;99.90
16523;DHT22;19889;52.546;13.348;2023-04-24T12:33:07;17.90;99.90
16523;DHT22;19889;52.546;13.348;2023-04-24T12:35:35;17.90;99.90
16523;DHT22;19889;52.546;13.348;2023-04-24T12:38:06;17.90;99.90
16523;DHT22;19889;52.546;13.348;2023-04-24T12:40:34;18.00;99.90
16523;DHT22;19889;52.546;13.348;2023-04-24T12:43:13;18.00;99.90
16523;DHT22;19889;52.546;13.348;2023-04-24T12:45:40;17.90;99.90
16523;DHT22;19889;52.546;13.348;2023-04-24T12:48:08;18.10;99.90
16523;DHT22;19889;52.546;13.348;2023-04-24T12:50:35;18.10;99.90
16523;DHT22;19889;52.546;13.348;2023-04-24T12:53:02;18.10;99.90
16523;DHT22;19889;52.546;13.348;2023-04-24T12:55:29;18.10;99.90
16523;DHT22;19889;52.546;13.348;2023-04-24T12:57:56;18.10;99.90
16523;DHT22;19889;52.546;13.348;2023-04-24T13:00:25;18.00;99.90
16523;DHT22;19889;52.546;13.348;2023-04-24T13:02:52;18.00;99.90
16523;DHT22;19889;52.546;13.348;2023-04-24T13:05:19;18.00;99.90
16523;DHT22;19889;52.546;13.348;2023-04-24T13:07:46;18.10;99.90
16523;DHT22;19889;52.546;13.348;2023-04-24T13:10:12;18.10;99.90
16523;DHT22;19889;52.546;13.348;2023-04-24T13:12:40;18.10;99.90
16523;DHT22;19889;52.546;13.348;2023-04-24T13:15:07;18.10;99.90
16523;DHT22;19889;52.546;13.348;2023-04-24T13:17:36;18.10;99.90
16523;DHT22;19889;52.546;13.348;2023-04-24T13:20:04;18.10;99.90
16523;DHT22;19889;52.546;13.348;2023-04-24T13:22:31;18.10;99.90
16523;DHT22;19889;52.546;13.348;2023-04-24T13:24:58;18.10;99.90
16523;DHT22;19889;52.546;13.348;2023-04-24T13:27:26;19.00;99.90
16523;DHT22;19889;52.546;13.348;2023-04-24T13:29:53;18.10;99.90
16523;DHT22;19889;52.546;13.348;2023-04-24T13:32:20;18.10;99.90
16523;DHT22;19889;52.546;13.348;2023-04-24T13:34:49;17.30;99.90
16523;DHT22;19889;52.546;13.348;2023-04-24T13:37:16;18.10;99.90
16523;DHT22;19889;52.546;13.348;2023-04-24T13:39:42;18.10;99.90
16523;DHT22;19889;52.546;13.348;2023-04-24T13:42:10;18.00;99.90
16523;DHT22;19889;52.546;13.348;2023-04-24T13:44:37;18.10;99.90
16523;DHT22;19889;52.546;13.348;2023-04-24T13:47:04;18.00;99.90
16523;DHT22;19889;52.546;13.348;2023-04-24T13:49:31;18.00;99.90
16523;DHT22;19889;52.546;13.348;2023-04-24T13:51:59;18.00;99.90
16523;DHT22;19889;52.546;13.348;2023-04-24T13:54:26;18.00;99.90
16523;DHT22;19889;52.546;13.348;2023-04-24T13:56:53;18.00;99.90
16523;DHT22;19889;52.546;13.348;2023-04-24T13:59:20;18.10;99.90
16523;DHT22;19889;52.546;13.348;2023-04-24T14:01:47;18.10;99.90
16523;DHT22;19889;52.546;13.348;2023-04-24T14:04:14;18.10;99.90
16523;DHT22;19889;52.546;13.348;2023-04-24T14:06:41;18.10;99.90
16523;DHT22;19889;52.546;13.348;2023-04-24T14:09:09;18.10;99.90
16523;DHT22;19889;52.546;13.348;2023-04-24T14:11:36;18.10;99.90
16523;DHT22;19889;52.546;13.348;2023-04-24T14:14:04;18.10;99.90
16523;DHT22;19889;52.546;13.348;2023-04-24T14:16:31;18.00;99.90
16523;DHT22;19889;52.546;13.348;2023-04-24T14:18:58;18.00;99.90
16523;DHT22;19889;52.546;13.348;2023-04-24T14:21:25;18.00;99.90
16523;DHT22;19889;52.546;13.348;2023-04-24T14:23:51;18.00;99.90
16523;DHT22;19889;52.546;13.348;2023-04-24T14:26:20;18.00;99.90
16523;DHT22;19889;52.546;13.348;2023-04-24T14:28:47;18.00;99.90
16523;DHT22;19889;52.546;13.348;2023-04-24T14:31:14;18.10;99.70
16523;DHT22;19889;52.546;13.348;2023-04-24T14:33:41;18.10;99.50
16523;DHT22;19889;52.546;13.348;2023-04-24T14:36:08;18.10;99.20
16523;DHT22;19889;52.546;13.348;2023-04-24T14:38:35;18.10;98.80
16523;DHT22;19889;52.546;13.348;2023-04-24T14:41:02;18.10;98.40
16523;DHT22;19889;52.546;13.348;2023-04-24T14:43:36;18.10;97.70
16523;DHT22;19889;52.546;13.348;2023-04-24T14:46:03;18.10;96.70
16523;DHT22;19889;52.546;13.348;2023-04-24T14:48:30;18.00;95.50
16523;DHT22;19889;52.546;13.348;2023-04-24T14:50:57;18.00;95.40
16523;DHT22;19889;52.546;13.348;2023-04-24T14:53:23;18.00;95.10
16523;DHT22;19889;52.546;13.348;2023-04-24T14:55:50;18.00;95.20
16523;DHT22;19889;52.546;13.348;2023-04-24T14:58:17;18.00;95.40
16523;DHT22;19889;52.546;13.348;2023-04-24T15:00:46;17.90;95.40
16523;DHT22;19889;52.546;13.348;2023-04-24T15:03:15;18.00;95.40
16523;DHT22;19889;52.546;13.348;2023-04-24T15:05:43;18.00;95.40
16523;DHT22;19889;52.546;13.348;2023-04-24T15:08:09;18.00;95.50
16523;DHT22;19889;52.546;13.348;2023-04-24T15:10:36;18.00;94.80
16523;DHT22;19889;52.546;13.348;2023-04-24T15:13:04;18.00;94.80
16523;DHT22;19889;52.546;13.348;2023-04-24T15:15:31;18.00;94.40
16523;DHT22;19889;52.546;13.348;2023-04-24T15:17:59;18.00;94.60
16523;DHT22;19889;52.546;13.348;2023-04-24T15:20:26;18.00;94.80
16523;DHT22;19889;52.546;13.348;2023-04-24T15:22:54;18.00;94.80
16523;DHT22;19889;52.546;13.348;2023-04-24T15:25:21;18.00;94.60
16523;DHT22;19889;52.546;13.348;2023-04-24T15:27:48;18.00;94.70